AirNav   Pilot Hours Calculator
 
 1034 users online  

58KY Willow Island Airpark
Finchville, Kentucky, USA

GOING TO FINCHVILLE?


FAA INFORMATION EFFECTIVE 26 JANUARY 2023

Location

FAA Identifier: 58KY
Lat/Long: 38-07-17.9700N 085-19-57.2000W
38-07.299500N 085-19.953333W
38.1216583,-85.3325556
(estimated)
Elevation: 740 ft. / 226 m (estimated)
Variation: 02W (1985)
From city: 2 miles S of FINCHVILLE, KY
Time zone: UTC -5 (UTC -4 during Daylight Saving Time)
Zip code: 40071

Airport Operations

Airport use: Private use. Permission required prior to landing
Activation date: 11/1989
Control tower: no
ARTCC: INDIANAPOLIS CENTER
FSS: LOUISVILLE FLIGHT SERVICE STATION
Attendance: UNATNDD
Segmented circle: no

Airport Communications

CTAF: 122.9
WX ASOS at LOU (17 nm W): 118.275 (502-473-0693)
WX ASOS at SDF (19 nm W): PHONE 502-367-1492

Nearby radio navigation aids

VOR radial/distance  VOR name  Freq  Var
IIUr084/11.6LOUISVILLE VORTAC114.8001E
FFTr263/(20.3)FRANKFORT VOR109.4003W
FTKr068/32.9FORT KNOX VOR/DME109.6001W
EWOr028/33.6NEW HOPE VOR/DME110.8001E

 
NDB name  Hdg/Dist  Freq  Var  ID
LAANG100/14.341404WLK .-.. -.-
GODMAN075/32.039603WGOI --. --- ..

Airport Services

Runway Information

Runway 11/29

Dimensions: 2500 x 100 ft. / 762 x 30 m
Surface: turf
Runway edge markings: ORANGE CONES AND BARRELS.
RUNWAY 11  RUNWAY 29
Traffic pattern: leftleft
Markings: NSTDNSTD

Runway 9/27

Dimensions: 1300 x 65 ft. / 396 x 20 m
Surface: turf
RUNWAY 9  RUNWAY 27
Traffic pattern: leftleft

Airport Ownership and Management from official FAA records

Ownership: Privately-owned
Owner: PHILIP RICHARD EVERHART
3165 TAYLOR DRIVE
CLARKSVILLE, IN 47129
Phone 812-948-0233
Manager: BRUCE EDSTEN
225 CURTIS WAY
TAYLORSVILLE, KY 40071
Phone 502-610-0026

Airport Operational Statistics

Aircraft based on the field: 23
Single engine airplanes: 23
    

Additional Remarks

FOR CD CTC LOUISVILLE APCH AT 502-375-7499

Instrument Procedures

There are no published instrument procedures at 58KY.

Some nearby airports with instrument procedures:

KLOU - Bowman Field Airport (17 nm W)
KSDF - Louisville Muhammad Ali International Airport (19 nm W)
KBRY - Samuels Field Airport (20 nm SW)
KFFT - Capital City Airport (20 nm E)
KJVY - Clark Regional Airport (24 nm NW)
 
Loc | Ops | Rwys | IFR | FBO | Links
Com | Nav | Svcs | Stats | Notes
Area around 58KY (Willow Island Airpark)
 
Road maps at: MapQuest Bing Google
 
Aerial photo
WARNING: Photo may not be current or correct
Aerial photo of 58KY (Willow Island Airpark)
Photo taken 10-Dec-2006

Do you have a better or more recent aerial photo of Willow Island Airpark that you would like to share? If so, please send us your photo.

 
Sectional chart

 
Airport distance calculator
Flying to Willow Island Airpark? Find the distance to fly.

From to 58KY

Sunrise and sunset
Times for 02-Feb-2023
 Local
(UTC-5)
 Zulu
(UTC)
Morning civil twilight07:1812:18
Sunrise07:4612:46
Sunset18:0423:04
Evening civil twilight18:3223:32

Current date and time
Zulu (UTC)  03-Feb-2023 02:07:58
Local (UTC-5)  02-Feb-2023 21:07:58
 
METAR
KLOU 
17nm W 
030153Z 25005KT 10SM CLR M01/M06 A3021 RMK AO2 SLP235 T10061056
KSDF 
19nm W 
030156Z 25008KT 10SM BKN220 01/M05 A3021 RMK AO2 SLP236 T00061050
KBRY 
20nm SW 
030155Z AUTO 24005KT 10SM FEW210 SCT240 M00/M01 A3019 RMK AO2 T10041012
KFFT 
21nm E 
030153Z AUTO 25005KT 9SM CLR 00/M03 A3017 RMK AO2 SLP223 T00001028
KJVY 
24nm NW 
030155Z AUTO 27004KT 10SM CLR 00/M05 RMK AO2 PWINO
K6I2 
30nm S 
030155Z AUTO 21006KT 10SM CLR 00/00 A3020 RMK AO2
KFTK 
33nm SW 
030155Z AUTO 23007KT 10SM SCT210 M01/M04 A3020 RMK AO2 SLP238 T10131041
TAF
KSDF 
19nm W 
021720Z 0218/0324 26008KT P6SM OVC250 FM030300 31010KT P6SM SCT250 FM030700 35012KT P6SM SCT025 FM031800 35008KT P6SM FEW250
NOTAMs
Click for the latest NOTAMs
NOTAMs are issued by the DoD/FAA and will open in a separate window not controlled by AirNav.

 

 
 

Would you like to see your business listed on this page?

 If your business provides an interesting product or service to pilots, flight crews, aircraft, or users of the Willow Island Airpark, you should consider listing it here.  To start the listing process, click on the button below
 
Add a business
 

Other Pages about Willow Island Airpark

Update a link
 
Copyright © AirNav, LLC. All rights reserved. Privacy Policy  Contact